• Join FlightAware (Why Join?)
  • Login
  • US Flag 
10:55PM EDT


 

Airport Tracker/Info


-or-


 

Live Flight TrackerFlight Track Log ✈ DAL2288 ✈ 16-Jun-2013 ✈ KATL - KBOS

Flight Track Log - Related Links

Times and Time Zones

All times are in EDT time to prevent confusion due to time zone crossing. See the DAL2288 flight status page for this flight to view local times or setup timezone preferences in your user account.

Time Position Orientation Groundspeed Altitude Reporting Facility
EDT Latitude Longitude Course Direction KTS MPH feet Rate Location/Type
12:43PM 33.6500 -84.5000 53° Northeast 198 228 3,000  Level Atlanta TRACON
12:44PM 33.7000 -84.5667 312° West 271 312 5,200 2,460 Climbing Atlanta TRACON
12:45PM 33.7466 -83.9835 54° Northeast  Level FlightAware Approximate
12:45PM 33.7667 -84.5833 348° North 285 328 8,000  Level Atlanta TRACON
12:46PM 33.8210 -83.8596 54° Northeast  Level FlightAware Approximate
12:47PM 33.8994 -83.7397 48° Northeast  Level FlightAware Approximate
12:47PM 33.8125 -84.4289 70° East 321 369 11,300  Level Atlanta Center
12:48PM 33.9776 -83.6191 53° Northeast  Level FlightAware Approximate
12:48PM 33.8128 -84.2889 90° East 363 418 13,100  Level Atlanta Center
12:49PM 33.8339 -84.1714 78° East 379 436 14,600 1,740 Climbing Atlanta Center
12:50PM 33.8611 -84.0414 76° East 401 461 16,600 1,740 Climbing Atlanta Center
12:51PM 33.8881 -83.9011 77° East 414 476 18,100 1,500 Climbing Atlanta Center
12:52PM 33.9169 -83.7608 76° East 425 489 19,600 1,500 Climbing Atlanta Center
12:53PM 33.9814 -83.6356 58° Northeast 437 503 21,100 1,500 Climbing Atlanta Center
12:54PM 34.0561 -83.5122 54° Northeast 448 516 22,700 1,380 Climbing Atlanta Center
12:55PM 34.1328 -83.3889 53° Northeast 461 531 23,900 1,200 Climbing Atlanta Center
12:56PM 34.2156 -83.2625 52° Northeast 468 539 25,100 1,140 Climbing Atlanta Center
12:57PM 34.3000 -83.1261 53° Northeast 468 539 26,200 960 Climbing Atlanta Center
12:58PM 34.3806 -82.9917 54° Northeast 476 548 27,100 840 Climbing Atlanta Center
12:59PM 34.4647 -82.8647 51° Northeast 482 555 27,900 900 Climbing Atlanta Center
01:00PM 34.5428 -82.7300 55° Northeast 487 560 28,900 1,080 Climbing Atlanta Center
01:01PM 34.6269 -82.5947 53° Northeast 487 560 30,100 1,080 Climbing Atlanta Center
01:02PM 34.6986 -82.4800 53° Northeast 487 560 31,100 900 Climbing Atlanta Center
01:03PM 34.7803 -82.3494 53° Northeast 482 555 32,000 960 Climbing Atlanta Center
01:04PM 34.8678 -82.2008 54° Northeast 482 555 33,100 840 Climbing Atlanta Center
01:05PM 34.9392 -82.0878 52° Northeast 490 564 33,700 720 Climbing Atlanta Center
01:06PM 35.0203 -81.9539 53° Northeast 477 549 34,600 600 Climbing Atlanta Center
01:07PM 35.0931 -81.8175 57° Northeast 477 549 35,000 180 Climbing Atlanta Center
01:08PM 35.1656 -81.6783 57° Northeast 477 549 35,000  Level Atlanta Center
01:09PM 35.2361 -81.5442 57° Northeast 477 549 35,000  Level Atlanta Center
01:10PM 35.3083 -81.4072 57° Northeast 477 549 35,000  Level Atlanta Center
01:11PM 35.3781 -81.2675 59° Northeast 477 549 35,000  Level Atlanta Center
01:12PM 35.4500 -81.1272 58° Northeast 482 555 35,000  Level Atlanta Center
01:13PM 35.5239 -80.9869 57° Northeast 487 560 35,000  Level Atlanta Center
01:14PM 35.5956 -80.8514 57° Northeast 482 555 35,000  Level Atlanta Center
01:15PM 35.6669 -80.7131 58° Northeast 482 555 35,000  Level Atlanta Center
01:16PM 35.7403 -80.5747 57° Northeast 482 555 35,000  Level Atlanta Center
01:18PM 35.8867 -80.2836 58° Northeast 482 555 35,000  Level Washington Center
01:19PM 35.9567 -80.1442 58° Northeast 482 555 35,000  Level Washington Center
01:20PM 36.0283 -80.0147 56° Northeast 475 547 35,000  Level Washington Center
01:21PM 36.1064 -79.8753 55° Northeast 470 541 35,000  Level Washington Center
01:22PM 36.1736 -79.7503 56° Northeast 480 552 35,000  Level Washington Center
01:23PM 36.2578 -79.6025 55° Northeast 480 552 35,000  Level Washington Center
01:24PM 36.3289 -79.4775 55° Northeast 480 552 35,000  Level Washington Center
01:25PM 36.4019 -79.3392 57° Northeast 475 547 35,000  Level Washington Center
01:26PM 36.4881 -79.1881 55° Northeast 481 554 35,000  Level Washington Center
01:27PM 36.5672 -79.0547 53° Northeast 481 554 35,000  Level Washington Center
01:28PM 36.6461 -78.9158 55° Northeast 481 554 35,000  Level Washington Center
01:29PM 36.7144 -78.7867 57° Northeast 486 559 35,000  Level Washington Center
01:30PM 36.7889 -78.6472 56° Northeast 486 559 35,000  Level Washington Center
01:31PM 36.8656 -78.5072 56° Northeast 486 559 35,000  Level Washington Center
01:32PM 36.9708 -78.3786 44° Northeast 479 551 35,000  Level Washington Center
01:33PM 37.0692 -78.2678 42° Northeast 479 551 35,000  Level Washington Center
01:34PM 37.1675 -78.1564 42° Northeast 474 545 35,000  Level Washington Center
01:35PM 37.2572 -78.0578 41° Northeast 468 539 35,000  Level Washington Center
01:36PM 37.3533 -77.9511 41° Northeast 468 539 35,000  Level Washington Center
01:37PM 37.4514 -77.8389 42° Northeast 468 539 35,000  Level Washington Center
01:38PM 37.5494 -77.7267 42° Northeast 473 544 35,000  Level Washington Center
01:39PM 37.6494 -77.6142 42° Northeast 473 544 35,000 120 Level Washington Center
01:40PM 37.7492 -77.5011 42° Northeast 473 544 35,300 300 Climbing Washington Center
01:41PM 37.8492 -77.3881 42° Northeast 473 544 35,700 600 Climbing Washington Center
01:42PM 37.9444 -77.2744 43° Northeast 473 544 36,500 660 Climbing Washington Center
01:43PM 38.0419 -77.1606 43° Northeast 473 544 37,000 240 Climbing Washington Center
01:44PM 38.1414 -77.0464 42° Northeast 473 544 37,000  Level Washington Center
01:45PM 38.2408 -76.9319 42° Northeast 473 544 37,000  Level Washington Center
01:46PM 38.3336 -76.8225 43° Northeast 468 539 37,000  Level Washington Center
01:47PM 38.4328 -76.7050 43° Northeast 468 539 37,000  Level Washington Center
01:48PM 38.5319 -76.5869 43° Northeast 474 545 37,000  Level Washington Center
01:49PM 38.6286 -76.4714 43° Northeast 474 545 37,000  Level Washington Center
01:50PM 38.7233 -76.3553 44° Northeast 474 545 37,000  Level Washington Center
01:51PM 38.8197 -76.2417 43° Northeast 474 545 37,000 -60 Level Washington Center
01:52PM 38.9308 -76.1172 41° Northeast 474 545 36,900  Descending Washington Center
01:53PM 39.0272 -76.0006 43° Northeast 479 551 37,000  Climbing Washington Center
01:54PM 39.1236 -75.8806 44° Northeast 474 545 37,000  Level Washington Center
01:55PM 39.2194 -75.7658 43° Northeast 474 545 37,000 -60 Level Washington Center
01:57PM 39.4150 -75.5300 43° Northeast 479 551 36,900  Descending New York Center
01:58PM 39.5114 -75.4100 44° Northeast 479 551 37,000  Climbing New York Center
01:59PM 39.6078 -75.2950 43° Northeast 474 545 37,000  Level New York Center
02:00PM 39.7042 -75.1744 44° Northeast 474 545 37,000  Level New York Center
02:01PM 39.8069 -75.0431 44° Northeast 479 551 37,000 -60 Level New York Center
02:02PM 39.9072 -74.9194 43° Northeast 479 551 36,900  Descending New York Center
02:03PM 39.9972 -74.7892 48° Northeast 478 550 37,000 -120 Climbing New York Center
02:04PM 40.0781 -74.6744 47° Northeast 485 558 36,700 -720 Descending New York Center
02:05PM 40.1747 -74.5250 50° Northeast 479 551 35,700 -960 Descending New York Center
02:06PM 40.2647 -74.3831 50° Northeast 492 566 34,800 -960 Descending New York Center
02:07PM 40.3542 -74.2461 49° Northeast 492 566 33,800 -1,020 Descending New York Center
02:08PM 40.4372 -74.1114 51° Northeast 486 559 32,900 -1,380 Descending New York Center
02:10PM 40.6503 -73.7778 50° Northeast 495 570 29,200 -1,740 Descending Boston Center
02:11PM 40.7417 -73.6233 52° Northeast 511 588 27,000 -2,220 Descending Boston Center
02:12PM 40.8306 -73.4797 51° Northeast 511 588 24,800 -1,500 Descending Boston Center
02:13PM 40.9214 -73.3439 48° Northeast 498 573 24,000 -900 Descending Boston Center
02:14PM 41.0119 -73.2158 47° Northeast 482 555 23,000 -540 Descending Boston Center
02:15PM 41.0794 -73.0653 59° Northeast 476 548 23,000  Level Boston Center
02:16PM 41.1428 -72.9086 62° Northeast 476 548 23,000  Level Boston Center
02:17PM 41.2058 -72.7519 62° Northeast 476 548 23,000  Level Boston Center
02:18PM 41.2686 -72.5947 62° Northeast 476 548 23,000 -60 Level Boston Center
02:19PM 41.3375 -72.4181 63° Northeast 476 548 22,900  Descending Boston Center
02:20PM 41.3917 -72.2906 60° Northeast 476 548 23,000  Climbing Boston Center
02:21PM 41.4622 -72.1217 61° Northeast 471 542 23,000 -300 Level Boston Center
02:22PM 41.5242 -71.9633 62° Northeast 476 548 22,400 -780 Descending Boston Center
02:23PM 41.5878 -71.8072 61° Northeast 476 548 21,500 -1,680 Descending Boston Center
02:24PM 41.6475 -71.6511 63° Northeast 471 542 19,100 -2,760 Descending Boston Center
02:25PM 41.7128 -71.4889 62° Northeast 463 533 16,000 -2,700 Descending Boston Center
02:26PM 41.7617 -71.3603 63° Northeast 435 501 13,800 -1,620 Descending Boston Center
02:27PM 41.8103 -71.2092 67° East 412 474 12,800 -1,440 Descending Boston Center
02:28PM 41.8464 -71.0969 67° East 373 429 11,000 -900 Descending Boston Center
02:29PM 41.8925 -70.9592 66° East 362 417 11,000 -120 Level Boston Center
02:30PM 41.9369 -70.8519 61° Northeast 362 417 10,800 -660 Descending Boston Center
02:31PM 42.0064 -70.7525 47° Northeast 349 402 9,700 -1,320 Descending Boston Center
02:32PM 42.0697 -70.6642 46° Northeast 330 380 8,200 -1,800 Descending Boston Center
02:33PM 42.1483 -70.6283 19° North 300 345 6,200 -2,040 Descending Boston Center
02:34PM 42.2294 -70.6119 North 290 334 4,200 -1,200 Descending Boston Center
02:35PM 42.2978 -70.5958 10° North 271 312 3,900 -120 Descending Boston Center
02:36PM 42.3750 -70.5936 North 244 281 4,000  Climbing Boston Center
02:37PM 42.4150 -70.6289 327° Northwest 194 223 3,900 -60 Descending Boston Center
02:38PM 42.4161 -70.6964 271° West 154 177 3,900 -300 Level Boston Center
02:39PM 42.4025 -70.7586 254° West 154 177 3,300 -600 Descending Boston Center